sensor_id;sensor_type;location;lat;lon;timestamp;P1;durP1;ratioP1;P2;durP2;ratioP2
20649;SDS011;10484;48.736;9.332;2023-12-22T00:01:11;3.17;;;1.27;;
20649;SDS011;10484;48.736;9.332;2023-12-22T00:03:40;3.80;;;0.90;;
20649;SDS011;10484;48.736;9.332;2023-12-22T00:06:06;1.93;;;0.70;;
20649;SDS011;10484;48.736;9.332;2023-12-22T00:08:32;4.83;;;1.50;;
20649;SDS011;10484;48.736;9.332;2023-12-22T00:10:57;2.43;;;0.80;;
20649;SDS011;10484;48.736;9.332;2023-12-22T00:13:24;0.77;;;0.50;;
20649;SDS011;10484;48.736;9.332;2023-12-22T00:15:49;1.63;;;0.93;;
20649;SDS011;10484;48.736;9.332;2023-12-22T00:18:15;2.17;;;1.03;;
20649;SDS011;10484;48.736;9.332;2023-12-22T00:20:40;2.93;;;1.20;;
20649;SDS011;10484;48.736;9.332;2023-12-22T00:23:06;2.07;;;0.70;;
20649;SDS011;10484;48.736;9.332;2023-12-22T00:25:31;5.37;;;1.30;;
20649;SDS011;10484;48.736;9.332;2023-12-22T00:27:57;1.63;;;1.17;;
20649;SDS011;10484;48.736;9.332;2023-12-22T00:30:22;3.10;;;0.90;;
20649;SDS011;10484;48.736;9.332;2023-12-22T00:32:49;3.73;;;1.00;;
20649;SDS011;10484;48.736;9.332;2023-12-22T00:35:15;4.90;;;1.60;;
20649;SDS011;10484;48.736;9.332;2023-12-22T00:37:40;2.93;;;1.20;;
20649;SDS011;10484;48.736;9.332;2023-12-22T00:40:06;5.33;;;1.23;;
20649;SDS011;10484;48.736;9.332;2023-12-22T00:42:33;5.13;;;1.23;;
20649;SDS011;10484;48.736;9.332;2023-12-22T00:44:58;1.87;;;1.20;;
20649;SDS011;10484;48.736;9.332;2023-12-22T00:47:24;4.00;;;1.60;;
20649;SDS011;10484;48.736;9.332;2023-12-22T00:49:49;5.00;;;1.63;;
20649;SDS011;10484;48.736;9.332;2023-12-22T00:52:15;2.40;;;1.30;;
20649;SDS011;10484;48.736;9.332;2023-12-22T00:54:41;2.50;;;1.03;;
20649;SDS011;10484;48.736;9.332;2023-12-22T00:57:06;1.90;;;1.07;;
20649;SDS011;10484;48.736;9.332;2023-12-22T00:59:32;2.00;;;0.87;;
20649;SDS011;10484;48.736;9.332;2023-12-22T01:01:57;4.57;;;1.00;;
20649;SDS011;10484;48.736;9.332;2023-12-22T01:04:23;1.77;;;1.10;;
20649;SDS011;10484;48.736;9.332;2023-12-22T01:06:48;5.67;;;1.20;;
20649;SDS011;10484;48.736;9.332;2023-12-22T01:09:14;6.47;;;1.13;;
20649;SDS011;10484;48.736;9.332;2023-12-22T01:11:40;4.17;;;1.00;;
20649;SDS011;10484;48.736;9.332;2023-12-22T01:14:06;1.53;;;0.70;;
20649;SDS011;10484;48.736;9.332;2023-12-22T01:16:32;1.87;;;0.70;;
20649;SDS011;10484;48.736;9.332;2023-12-22T01:18:58;1.80;;;0.80;;
20649;SDS011;10484;48.736;9.332;2023-12-22T01:21:23;3.63;;;1.10;;
20649;SDS011;10484;48.736;9.332;2023-12-22T01:23:49;3.00;;;1.17;;
20649;SDS011;10484;48.736;9.332;2023-12-22T01:26:14;1.67;;;0.87;;
20649;SDS011;10484;48.736;9.332;2023-12-22T01:28:40;2.40;;;1.10;;
20649;SDS011;10484;48.736;9.332;2023-12-22T01:31:05;3.30;;;1.10;;
20649;SDS011;10484;48.736;9.332;2023-12-22T01:33:31;3.67;;;1.00;;
20649;SDS011;10484;48.736;9.332;2023-12-22T01:35:57;2.17;;;1.10;;
20649;SDS011;10484;48.736;9.332;2023-12-22T01:38:22;1.80;;;0.70;;
20649;SDS011;10484;48.736;9.332;2023-12-22T01:40:48;2.93;;;0.90;;
20649;SDS011;10484;48.736;9.332;2023-12-22T01:43:13;3.17;;;1.20;;
20649;SDS011;10484;48.736;9.332;2023-12-22T01:45:39;4.30;;;1.17;;
20649;SDS011;10484;48.736;9.332;2023-12-22T01:48:08;3.83;;;1.27;;
20649;SDS011;10484;48.736;9.332;2023-12-22T01:50:35;2.17;;;1.07;;
20649;SDS011;10484;48.736;9.332;2023-12-22T01:53:01;2.17;;;1.10;;
20649;SDS011;10484;48.736;9.332;2023-12-22T01:55:27;1.97;;;0.90;;
20649;SDS011;10484;48.736;9.332;2023-12-22T01:57:54;3.40;;;1.80;;
20649;SDS011;10484;48.736;9.332;2023-12-22T02:00:20;3.40;;;1.30;;
20649;SDS011;10484;48.736;9.332;2023-12-22T02:02:46;2.63;;;0.73;;
20649;SDS011;10484;48.736;9.332;2023-12-22T02:05:12;2.13;;;1.23;;
20649;SDS011;10484;48.736;9.332;2023-12-22T02:07:41;4.80;;;0.83;;
20649;SDS011;10484;48.736;9.332;2023-12-22T02:10:08;6.17;;;1.00;;
20649;SDS011;10484;48.736;9.332;2023-12-22T02:12:34;3.63;;;0.97;;
20649;SDS011;10484;48.736;9.332;2023-12-22T02:15:03;1.80;;;0.80;;
20649;SDS011;10484;48.736;9.332;2023-12-22T02:20:41;2.53;;;0.90;;
20649;SDS011;10484;48.736;9.332;2023-12-22T02:23:09;2.00;;;0.53;;
20649;SDS011;10484;48.736;9.332;2023-12-22T02:25:34;3.33;;;1.00;;
20649;SDS011;10484;48.736;9.332;2023-12-22T02:28:09;1.00;;;0.60;;
20649;SDS011;10484;48.736;9.332;2023-12-22T02:30:57;3.80;;;1.33;;
20649;SDS011;10484;48.736;9.332;2023-12-22T02:33:26;1.47;;;0.70;;
20649;SDS011;10484;48.736;9.332;2023-12-22T02:35:53;2.60;;;0.87;;
20649;SDS011;10484;48.736;9.332;2023-12-22T02:38:23;3.33;;;1.20;;
20649;SDS011;10484;48.736;9.332;2023-12-22T02:40:50;1.33;;;0.73;;
20649;SDS011;10484;48.736;9.332;2023-12-22T02:43:16;2.30;;;0.50;;
20649;SDS011;10484;48.736;9.332;2023-12-22T02:45:42;2.07;;;0.57;;
20649;SDS011;10484;48.736;9.332;2023-12-22T02:48:07;3.03;;;0.87;;
20649;SDS011;10484;48.736;9.332;2023-12-22T02:50:33;2.80;;;1.27;;
20649;SDS011;10484;48.736;9.332;2023-12-22T02:52:58;4.07;;;0.80;;
20649;SDS011;10484;48.736;9.332;2023-12-22T02:55:24;1.87;;;0.87;;
20649;SDS011;10484;48.736;9.332;2023-12-22T02:57:49;1.90;;;0.90;;
20649;SDS011;10484;48.736;9.332;2023-12-22T03:00:15;5.93;;;1.07;;
20649;SDS011;10484;48.736;9.332;2023-12-22T03:02:41;3.07;;;1.03;;
20649;SDS011;10484;48.736;9.332;2023-12-22T03:05:06;2.80;;;0.77;;
20649;SDS011;10484;48.736;9.332;2023-12-22T03:07:32;2.63;;;0.90;;
20649;SDS011;10484;48.736;9.332;2023-12-22T03:09:58;3.50;;;1.13;;
20649;SDS011;10484;48.736;9.332;2023-12-22T03:12:23;4.20;;;1.00;;
20649;SDS011;10484;48.736;9.332;2023-12-22T03:14:49;4.03;;;1.10;;
20649;SDS011;10484;48.736;9.332;2023-12-22T03:17:14;1.90;;;0.90;;
20649;SDS011;10484;48.736;9.332;2023-12-22T03:19:40;5.00;;;1.20;;
20649;SDS011;10484;48.736;9.332;2023-12-22T03:22:05;3.20;;;1.20;;
20649;SDS011;10484;48.736;9.332;2023-12-22T03:24:31;2.40;;;0.80;;
20649;SDS011;10484;48.736;9.332;2023-12-22T03:26:57;2.00;;;0.80;;
20649;SDS011;10484;48.736;9.332;2023-12-22T03:29:22;2.33;;;0.80;;
20649;SDS011;10484;48.736;9.332;2023-12-22T03:31:48;2.30;;;0.90;;
20649;SDS011;10484;48.736;9.332;2023-12-22T03:34:13;3.60;;;0.67;;
20649;SDS011;10484;48.736;9.332;2023-12-22T03:36:39;2.93;;;1.23;;
20649;SDS011;10484;48.736;9.332;2023-12-22T03:39:05;2.73;;;0.80;;
20649;SDS011;10484;48.736;9.332;2023-12-22T03:41:30;3.30;;;0.97;;
20649;SDS011;10484;48.736;9.332;2023-12-22T03:43:56;1.90;;;0.90;;
20649;SDS011;10484;48.736;9.332;2023-12-22T03:46:22;6.33;;;1.07;;
20649;SDS011;10484;48.736;9.332;2023-12-22T03:48:49;4.50;;;1.40;;
20649;SDS011;10484;48.736;9.332;2023-12-22T03:51:15;2.20;;;0.80;;
20649;SDS011;10484;48.736;9.332;2023-12-22T03:53:41;1.63;;;0.70;;
20649;SDS011;10484;48.736;9.332;2023-12-22T03:56:07;4.90;;;1.30;;
20649;SDS011;10484;48.736;9.332;2023-12-22T03:58:34;4.13;;;1.13;;
20649;SDS011;10484;48.736;9.332;2023-12-22T04:01:02;3.20;;;1.20;;
20649;SDS011;10484;48.736;9.332;2023-12-22T04:03:28;2.10;;;1.13;;
20649;SDS011;10484;48.736;9.332;2023-12-22T04:05:54;2.47;;;1.00;;
20649;SDS011;10484;48.736;9.332;2023-12-22T04:08:19;1.87;;;1.00;;
20649;SDS011;10484;48.736;9.332;2023-12-22T04:10:45;1.23;;;0.90;;
20649;SDS011;10484;48.736;9.332;2023-12-22T04:13:11;6.40;;;1.37;;
20649;SDS011;10484;48.736;9.332;2023-12-22T04:15:37;3.07;;;1.00;;
20649;SDS011;10484;48.736;9.332;2023-12-22T04:18:02;2.73;;;1.00;;
20649;SDS011;10484;48.736;9.332;2023-12-22T04:20:28;4.77;;;1.40;;
20649;SDS011;10484;48.736;9.332;2023-12-22T04:22:54;3.70;;;0.80;;
20649;SDS011;10484;48.736;9.332;2023-12-22T04:25:19;4.33;;;1.20;;
20649;SDS011;10484;48.736;9.332;2023-12-22T04:27:47;3.03;;;1.17;;
20649;SDS011;10484;48.736;9.332;2023-12-22T04:30:12;6.60;;;1.20;;
20649;SDS011;10484;48.736;9.332;2023-12-22T04:32:38;3.10;;;1.37;;
20649;SDS011;10484;48.736;9.332;2023-12-22T04:35:04;4.57;;;1.40;;
20649;SDS011;10484;48.736;9.332;2023-12-22T04:37:29;3.00;;;1.30;;
20649;SDS011;10484;48.736;9.332;2023-12-22T04:39:55;4.23;;;1.57;;
20649;SDS011;10484;48.736;9.332;2023-12-22T04:42:21;6.50;;;2.03;;
20649;SDS011;10484;48.736;9.332;2023-12-22T04:44:46;3.30;;;1.57;;
20649;SDS011;10484;48.736;9.332;2023-12-22T04:47:12;4.27;;;1.40;;
20649;SDS011;10484;48.736;9.332;2023-12-22T04:49:38;4.27;;;1.40;;
20649;SDS011;10484;48.736;9.332;2023-12-22T04:52:04;6.13;;;1.30;;
20649;SDS011;10484;48.736;9.332;2023-12-22T04:54:29;2.40;;;1.00;;
20649;SDS011;10484;48.736;9.332;2023-12-22T04:56:55;3.00;;;1.17;;
20649;SDS011;10484;48.736;9.332;2023-12-22T04:59:21;6.53;;;1.60;;
20649;SDS011;10484;48.736;9.332;2023-12-22T05:01:47;4.17;;;1.20;;
20649;SDS011;10484;48.736;9.332;2023-12-22T05:04:13;2.53;;;0.83;;
20649;SDS011;10484;48.736;9.332;2023-12-22T05:06:38;2.27;;;0.60;;
20649;SDS011;10484;48.736;9.332;2023-12-22T05:09:04;2.47;;;0.80;;
20649;SDS011;10484;48.736;9.332;2023-12-22T05:11:30;2.60;;;0.70;;
20649;SDS011;10484;48.736;9.332;2023-12-22T05:13:55;2.33;;;0.80;;
20649;SDS011;10484;48.736;9.332;2023-12-22T05:16:21;2.13;;;1.00;;
20649;SDS011;10484;48.736;9.332;2023-12-22T05:18:46;3.03;;;0.97;;
20649;SDS011;10484;48.736;9.332;2023-12-22T05:21:12;2.90;;;0.93;;
20649;SDS011;10484;48.736;9.332;2023-12-22T05:23:39;4.50;;;1.43;;
20649;SDS011;10484;48.736;9.332;2023-12-22T05:26:04;2.60;;;0.70;;
20649;SDS011;10484;48.736;9.332;2023-12-22T05:28:30;2.60;;;1.00;;
20649;SDS011;10484;48.736;9.332;2023-12-22T05:30:55;3.10;;;1.10;;
20649;SDS011;10484;48.736;9.332;2023-12-22T05:33:21;3.70;;;1.20;;
20649;SDS011;10484;48.736;9.332;2023-12-22T05:35:46;5.10;;;1.33;;
20649;SDS011;10484;48.736;9.332;2023-12-22T05:38:12;4.90;;;1.30;;
20649;SDS011;10484;48.736;9.332;2023-12-22T05:40:37;6.57;;;1.80;;
20649;SDS011;10484;48.736;9.332;2023-12-22T05:43:03;3.87;;;1.30;;
20649;SDS011;10484;48.736;9.332;2023-12-22T05:45:29;3.90;;;1.43;;
20649;SDS011;10484;48.736;9.332;2023-12-22T05:47:54;5.00;;;1.20;;
20649;SDS011;10484;48.736;9.332;2023-12-22T05:50:20;3.67;;;1.60;;
20649;SDS011;10484;48.736;9.332;2023-12-22T05:52:45;4.80;;;1.90;;
20649;SDS011;10484;48.736;9.332;2023-12-22T05:55:11;4.63;;;1.60;;
20649;SDS011;10484;48.736;9.332;2023-12-22T05:57:36;3.70;;;1.90;;
20649;SDS011;10484;48.736;9.332;2023-12-22T06:00:02;4.27;;;1.70;;
20649;SDS011;10484;48.736;9.332;2023-12-22T06:02:32;4.07;;;1.80;;
20649;SDS011;10484;48.736;9.332;2023-12-22T06:04:58;9.10;;;2.40;;
20649;SDS011;10484;48.736;9.332;2023-12-22T06:07:24;8.00;;;2.00;;
20649;SDS011;10484;48.736;9.332;2023-12-22T06:09:50;5.40;;;1.80;;
20649;SDS011;10484;48.736;9.332;2023-12-22T06:12:15;10.53;;;2.53;;
20649;SDS011;10484;48.736;9.332;2023-12-22T06:14:41;4.73;;;1.47;;
20649;SDS011;10484;48.736;9.332;2023-12-22T06:17:06;5.50;;;1.70;;
20649;SDS011;10484;48.736;9.332;2023-12-22T06:19:32;5.17;;;1.57;;
20649;SDS011;10484;48.736;9.332;2023-12-22T06:22:00;5.00;;;2.00;;
20649;SDS011;10484;48.736;9.332;2023-12-22T06:24:25;5.33;;;1.73;;
20649;SDS011;10484;48.736;9.332;2023-12-22T06:26:51;5.47;;;1.83;;
20649;SDS011;10484;48.736;9.332;2023-12-22T06:29:16;7.63;;;1.90;;
20649;SDS011;10484;48.736;9.332;2023-12-22T06:31:42;3.73;;;1.83;;
20649;SDS011;10484;48.736;9.332;2023-12-22T06:34:08;6.20;;;1.90;;
20649;SDS011;10484;48.736;9.332;2023-12-22T06:36:33;5.07;;;1.73;;
20649;SDS011;10484;48.736;9.332;2023-12-22T06:38:59;5.10;;;2.03;;
20649;SDS011;10484;48.736;9.332;2023-12-22T06:41:25;6.83;;;2.33;;
20649;SDS011;10484;48.736;9.332;2023-12-22T06:43:52;7.57;;;1.93;;
20649;SDS011;10484;48.736;9.332;2023-12-22T06:46:18;5.83;;;1.73;;
20649;SDS011;10484;48.736;9.332;2023-12-22T06:48:44;7.23;;;2.17;;
20649;SDS011;10484;48.736;9.332;2023-12-22T06:51:17;5.43;;;2.17;;
20649;SDS011;10484;48.736;9.332;2023-12-22T06:53:46;6.03;;;1.43;;
20649;SDS011;10484;48.736;9.332;2023-12-22T06:56:16;4.90;;;1.83;;
20649;SDS011;10484;48.736;9.332;2023-12-22T06:58:42;4.70;;;1.47;;
20649;SDS011;10484;48.736;9.332;2023-12-22T07:01:08;4.57;;;1.70;;
20649;SDS011;10484;48.736;9.332;2023-12-22T07:03:34;5.67;;;2.00;;
20649;SDS011;10484;48.736;9.332;2023-12-22T07:05:59;6.33;;;2.50;;
20649;SDS011;10484;48.736;9.332;2023-12-22T07:08:25;3.37;;;1.43;;
20649;SDS011;10484;48.736;9.332;2023-12-22T07:10:50;3.17;;;1.20;;
20649;SDS011;10484;48.736;9.332;2023-12-22T07:13:16;5.03;;;1.43;;
20649;SDS011;10484;48.736;9.332;2023-12-22T07:15:41;7.77;;;1.60;;
20649;SDS011;10484;48.736;9.332;2023-12-22T07:18:07;10.20;;;2.00;;
20649;SDS011;10484;48.736;9.332;2023-12-22T07:20:32;3.53;;;1.27;;
20649;SDS011;10484;48.736;9.332;2023-12-22T07:22:58;3.00;;;1.27;;
20649;SDS011;10484;48.736;9.332;2023-12-22T07:25:23;3.80;;;1.07;;
20649;SDS011;10484;48.736;9.332;2023-12-22T07:27:49;3.37;;;1.17;;
20649;SDS011;10484;48.736;9.332;2023-12-22T07:30:15;4.53;;;1.53;;
20649;SDS011;10484;48.736;9.332;2023-12-22T07:32:42;4.77;;;1.40;;
20649;SDS011;10484;48.736;9.332;2023-12-22T07:35:09;5.90;;;2.00;;
20649;SDS011;10484;48.736;9.332;2023-12-22T07:37:35;5.33;;;1.40;;
20649;SDS011;10484;48.736;9.332;2023-12-22T07:40:01;3.20;;;1.50;;
20649;SDS011;10484;48.736;9.332;2023-12-22T07:42:26;6.80;;;1.60;;
20649;SDS011;10484;48.736;9.332;2023-12-22T07:44:52;4.83;;;1.13;;
20649;SDS011;10484;48.736;9.332;2023-12-22T07:47:17;6.73;;;1.97;;
20649;SDS011;10484;48.736;9.332;2023-12-22T07:49:43;3.67;;;1.40;;
20649;SDS011;10484;48.736;9.332;2023-12-22T07:52:08;5.20;;;1.30;;
20649;SDS011;10484;48.736;9.332;2023-12-22T07:54:34;3.60;;;1.63;;
20649;SDS011;10484;48.736;9.332;2023-12-22T07:57:00;5.30;;;1.77;;
20649;SDS011;10484;48.736;9.332;2023-12-22T07:59:26;4.50;;;1.30;;
20649;SDS011;10484;48.736;9.332;2023-12-22T08:01:51;3.33;;;1.60;;
20649;SDS011;10484;48.736;9.332;2023-12-22T08:04:17;3.57;;;1.30;;
20649;SDS011;10484;48.736;9.332;2023-12-22T08:06:43;5.50;;;1.43;;
20649;SDS011;10484;48.736;9.332;2023-12-22T08:09:08;2.83;;;0.93;;
20649;SDS011;10484;48.736;9.332;2023-12-22T08:11:34;4.83;;;1.20;;
20649;SDS011;10484;48.736;9.332;2023-12-22T08:13:59;7.27;;;1.60;;
20649;SDS011;10484;48.736;9.332;2023-12-22T08:16:25;2.70;;;1.03;;
20649;SDS011;10484;48.736;9.332;2023-12-22T08:18:50;3.40;;;1.63;;
20649;SDS011;10484;48.736;9.332;2023-12-22T08:21:17;4.30;;;1.40;;
20649;SDS011;10484;48.736;9.332;2023-12-22T08:23:43;7.03;;;1.50;;
20649;SDS011;10484;48.736;9.332;2023-12-22T08:26:09;5.33;;;1.13;;
20649;SDS011;10484;48.736;9.332;2023-12-22T08:28:34;4.47;;;1.50;;
20649;SDS011;10484;48.736;9.332;2023-12-22T08:31:00;4.87;;;1.57;;
20649;SDS011;10484;48.736;9.332;2023-12-22T08:33:25;2.53;;;1.37;;
20649;SDS011;10484;48.736;9.332;2023-12-22T08:35:51;5.13;;;2.00;;
20649;SDS011;10484;48.736;9.332;2023-12-22T08:38:16;6.77;;;1.70;;
20649;SDS011;10484;48.736;9.332;2023-12-22T08:40:42;4.90;;;1.80;;
20649;SDS011;10484;48.736;9.332;2023-12-22T08:43:07;4.30;;;1.40;;
20649;SDS011;10484;48.736;9.332;2023-12-22T08:45:33;7.07;;;2.00;;
20649;SDS011;10484;48.736;9.332;2023-12-22T08:47:59;6.00;;;2.07;;
20649;SDS011;10484;48.736;9.332;2023-12-22T08:50:25;7.67;;;2.10;;
20649;SDS011;10484;48.736;9.332;2023-12-22T08:52:51;9.00;;;2.50;;
20649;SDS011;10484;48.736;9.332;2023-12-22T08:55:17;8.83;;;2.30;;
20649;SDS011;10484;48.736;9.332;2023-12-22T08:57:42;4.80;;;2.00;;
20649;SDS011;10484;48.736;9.332;2023-12-22T09:00:08;4.70;;;2.07;;
20649;SDS011;10484;48.736;9.332;2023-12-22T09:02:34;10.67;;;3.40;;
20649;SDS011;10484;48.736;9.332;2023-12-22T09:05:00;6.33;;;2.47;;
20649;SDS011;10484;48.736;9.332;2023-12-22T09:07:25;5.37;;;2.43;;
20649;SDS011;10484;48.736;9.332;2023-12-22T09:09:51;11.00;;;2.93;;
20649;SDS011;10484;48.736;9.332;2023-12-22T09:12:16;6.70;;;2.00;;
20649;SDS011;10484;48.736;9.332;2023-12-22T09:14:42;8.90;;;2.60;;
20649;SDS011;10484;48.736;9.332;2023-12-22T09:17:08;8.03;;;2.40;;
20649;SDS011;10484;48.736;9.332;2023-12-22T09:19:33;8.03;;;2.70;;
20649;SDS011;10484;48.736;9.332;2023-12-22T09:21:59;8.63;;;2.70;;
20649;SDS011;10484;48.736;9.332;2023-12-22T09:24:25;6.60;;;2.33;;
20649;SDS011;10484;48.736;9.332;2023-12-22T09:26:50;8.67;;;2.90;;
20649;SDS011;10484;48.736;9.332;2023-12-22T09:29:17;9.30;;;2.20;;
20649;SDS011;10484;48.736;9.332;2023-12-22T09:31:42;11.03;;;2.10;;
20649;SDS011;10484;48.736;9.332;2023-12-22T09:34:08;5.80;;;2.30;;
20649;SDS011;10484;48.736;9.332;2023-12-22T09:36:34;7.60;;;2.30;;
20649;SDS011;10484;48.736;9.332;2023-12-22T09:38:59;10.90;;;3.00;;
20649;SDS011;10484;48.736;9.332;2023-12-22T09:41:25;8.87;;;2.33;;
20649;SDS011;10484;48.736;9.332;2023-12-22T09:43:50;11.70;;;3.37;;
20649;SDS011;10484;48.736;9.332;2023-12-22T09:46:18;9.23;;;2.30;;
20649;SDS011;10484;48.736;9.332;2023-12-22T09:48:46;13.37;;;3.37;;
20649;SDS011;10484;48.736;9.332;2023-12-22T09:51:13;7.50;;;2.27;;
20649;SDS011;10484;48.736;9.332;2023-12-22T09:53:39;8.10;;;2.83;;
20649;SDS011;10484;48.736;9.332;2023-12-22T09:56:06;7.53;;;2.20;;
20649;SDS011;10484;48.736;9.332;2023-12-22T09:58:33;9.80;;;3.63;;
20649;SDS011;10484;48.736;9.332;2023-12-22T10:01:00;11.73;;;3.50;;
20649;SDS011;10484;48.736;9.332;2023-12-22T10:03:30;9.20;;;3.60;;
20649;SDS011;10484;48.736;9.332;2023-12-22T10:05:58;13.63;;;2.90;;
20649;SDS011;10484;48.736;9.332;2023-12-22T10:08:24;9.30;;;2.43;;
20649;SDS011;10484;48.736;9.332;2023-12-22T10:10:51;11.50;;;3.07;;
20649;SDS011;10484;48.736;9.332;2023-12-22T10:13:17;8.53;;;2.90;;
20649;SDS011;10484;48.736;9.332;2023-12-22T10:15:43;8.80;;;3.20;;
20649;SDS011;10484;48.736;9.332;2023-12-22T10:18:11;12.67;;;3.40;;
20649;SDS011;10484;48.736;9.332;2023-12-22T10:20:37;11.53;;;3.00;;
20649;SDS011;10484;48.736;9.332;2023-12-22T10:23:04;12.90;;;3.87;;
20649;SDS011;10484;48.736;9.332;2023-12-22T10:25:29;9.47;;;2.93;;
20649;SDS011;10484;48.736;9.332;2023-12-22T10:27:55;7.50;;;2.93;;
20649;SDS011;10484;48.736;9.332;2023-12-22T10:30:21;11.37;;;3.20;;
20649;SDS011;10484;48.736;9.332;2023-12-22T10:32:50;8.00;;;3.50;;
20649;SDS011;10484;48.736;9.332;2023-12-22T10:35:22;10.33;;;3.40;;
20649;SDS011;10484;48.736;9.332;2023-12-22T10:37:48;9.77;;;2.50;;
20649;SDS011;10484;48.736;9.332;2023-12-22T10:40:17;6.47;;;2.53;;
20649;SDS011;10484;48.736;9.332;2023-12-22T10:42:43;9.37;;;2.77;;
20649;SDS011;10484;48.736;9.332;2023-12-22T10:45:09;6.73;;;2.80;;
20649;SDS011;10484;48.736;9.332;2023-12-22T10:47:34;7.27;;;2.20;;
20649;SDS011;10484;48.736;9.332;2023-12-22T10:50:03;8.37;;;3.10;;
20649;SDS011;10484;48.736;9.332;2023-12-22T10:52:29;9.60;;;2.83;;
20649;SDS011;10484;48.736;9.332;2023-12-22T10:54:57;8.40;;;2.63;;
20649;SDS011;10484;48.736;9.332;2023-12-22T10:57:23;8.13;;;2.53;;
20649;SDS011;10484;48.736;9.332;2023-12-22T10:59:49;8.23;;;3.00;;
20649;SDS011;10484;48.736;9.332;2023-12-22T11:02:17;7.73;;;3.07;;
20649;SDS011;10484;48.736;9.332;2023-12-22T11:05:03;7.07;;;2.50;;
20649;SDS011;10484;48.736;9.332;2023-12-22T11:07:34;6.37;;;2.00;;
20649;SDS011;10484;48.736;9.332;2023-12-22T11:10:04;8.30;;;3.10;;
20649;SDS011;10484;48.736;9.332;2023-12-22T11:12:37;4.10;;;1.67;;
20649;SDS011;10484;48.736;9.332;2023-12-22T11:15:04;6.00;;;1.97;;
20649;SDS011;10484;48.736;9.332;2023-12-22T11:17:32;5.83;;;1.87;;
20649;SDS011;10484;48.736;9.332;2023-12-22T11:19:59;7.33;;;1.77;;
20649;SDS011;10484;48.736;9.332;2023-12-22T11:22:24;2.80;;;1.40;;
20649;SDS011;10484;48.736;9.332;2023-12-22T11:24:51;3.00;;;1.23;;
20649;SDS011;10484;48.736;9.332;2023-12-22T11:27:20;4.93;;;2.10;;
20649;SDS011;10484;48.736;9.332;2023-12-22T11:29:49;3.07;;;1.23;;
20649;SDS011;10484;48.736;9.332;2023-12-22T11:32:16;1.90;;;1.00;;
20649;SDS011;10484;48.736;9.332;2023-12-22T11:34:43;2.87;;;1.03;;
20649;SDS011;10484;48.736;9.332;2023-12-22T11:37:10;4.37;;;1.00;;
20649;SDS011;10484;48.736;9.332;2023-12-22T11:39:37;2.70;;;1.30;;
20649;SDS011;10484;48.736;9.332;2023-12-22T11:42:04;4.17;;;1.10;;
20649;SDS011;10484;48.736;9.332;2023-12-22T11:44:32;9.43;;;1.93;;
20649;SDS011;10484;48.736;9.332;2023-12-22T11:47:07;3.83;;;1.70;;
20649;SDS011;10484;48.736;9.332;2023-12-22T11:49:34;7.67;;;1.90;;
20649;SDS011;10484;48.736;9.332;2023-12-22T11:52:13;3.57;;;1.70;;
20649;SDS011;10484;48.736;9.332;2023-12-22T11:54:44;7.30;;;1.67;;
20649;SDS011;10484;48.736;9.332;2023-12-22T11:57:30;4.20;;;1.50;;
20649;SDS011;10484;48.736;9.332;2023-12-22T12:02:53;3.03;;;1.63;;
20649;SDS011;10484;48.736;9.332;2023-12-22T12:05:20;3.70;;;1.93;;
20649;SDS011;10484;48.736;9.332;2023-12-22T12:07:46;4.27;;;1.90;;
20649;SDS011;10484;48.736;9.332;2023-12-22T12:15:34;2.83;;;1.93;;
20649;SDS011;10484;48.736;9.332;2023-12-22T12:18:01;6.00;;;2.23;;
20649;SDS011;10484;48.736;9.332;2023-12-22T12:20:27;4.07;;;1.70;;
20649;SDS011;10484;48.736;9.332;2023-12-22T12:22:53;4.30;;;2.00;;
20649;SDS011;10484;48.736;9.332;2023-12-22T12:25:21;1.50;;;1.40;;
20649;SDS011;10484;48.736;9.332;2023-12-22T12:27:50;2.90;;;1.40;;
20649;SDS011;10484;48.736;9.332;2023-12-22T12:30:30;7.03;;;2.10;;
20649;SDS011;10484;48.736;9.332;2023-12-22T12:32:58;6.30;;;1.60;;
20649;SDS011;10484;48.736;9.332;2023-12-22T12:35:28;2.80;;;1.17;;
20649;SDS011;10484;48.736;9.332;2023-12-22T12:37:54;2.20;;;1.00;;
20649;SDS011;10484;48.736;9.332;2023-12-22T12:40:20;2.20;;;1.20;;
20649;SDS011;10484;48.736;9.332;2023-12-22T12:42:48;2.20;;;1.27;;
20649;SDS011;10484;48.736;9.332;2023-12-22T12:45:15;3.50;;;1.30;;
20649;SDS011;10484;48.736;9.332;2023-12-22T12:47:54;2.90;;;1.40;;
20649;SDS011;10484;48.736;9.332;2023-12-22T12:50:26;3.33;;;2.60;;
20649;SDS011;10484;48.736;9.332;2023-12-22T12:52:59;3.70;;;2.10;;
20649;SDS011;10484;48.736;9.332;2023-12-22T12:55:25;1.77;;;1.20;;
20649;SDS011;10484;48.736;9.332;2023-12-22T12:57:54;3.70;;;1.40;;
20649;SDS011;10484;48.736;9.332;2023-12-22T13:02:56;1.50;;;1.10;;
20649;SDS011;10484;48.736;9.332;2023-12-22T13:05:25;1.93;;;1.43;;
20649;SDS011;10484;48.736;9.332;2023-12-22T13:07:51;1.23;;;0.97;;
20649;SDS011;10484;48.736;9.332;2023-12-22T13:10:23;1.97;;;1.07;;
20649;SDS011;10484;48.736;9.332;2023-12-22T13:12:50;1.93;;;0.90;;
20649;SDS011;10484;48.736;9.332;2023-12-22T13:15:19;1.10;;;0.70;;
20649;SDS011;10484;48.736;9.332;2023-12-22T13:17:45;2.23;;;0.80;;
20649;SDS011;10484;48.736;9.332;2023-12-22T13:20:11;2.03;;;0.90;;
20649;SDS011;10484;48.736;9.332;2023-12-22T13:22:37;0.70;;;0.50;;
20649;SDS011;10484;48.736;9.332;2023-12-22T13:25:03;1.33;;;0.70;;
20649;SDS011;10484;48.736;9.332;2023-12-22T13:27:29;2.37;;;0.60;;
20649;SDS011;10484;48.736;9.332;2023-12-22T13:29:55;1.20;;;0.70;;
20649;SDS011;10484;48.736;9.332;2023-12-22T13:32:21;1.40;;;0.83;;
20649;SDS011;10484;48.736;9.332;2023-12-22T13:34:51;2.37;;;0.80;;
20649;SDS011;10484;48.736;9.332;2023-12-22T13:37:18;0.70;;;0.50;;
20649;SDS011;10484;48.736;9.332;2023-12-22T13:39:45;1.10;;;0.70;;
20649;SDS011;10484;48.736;9.332;2023-12-22T13:42:17;1.03;;;0.70;;
20649;SDS011;10484;48.736;9.332;2023-12-22T13:44:45;1.03;;;0.90;;
20649;SDS011;10484;48.736;9.332;2023-12-22T13:47:14;2.20;;;0.50;;
20649;SDS011;10484;48.736;9.332;2023-12-22T13:49:41;1.30;;;0.77;;
20649;SDS011;10484;48.736;9.332;2023-12-22T13:52:08;1.10;;;0.50;;
20649;SDS011;10484;48.736;9.332;2023-12-22T13:54:49;0.80;;;0.50;;
20649;SDS011;10484;48.736;9.332;2023-12-22T13:57:20;0.70;;;0.60;;
20649;SDS011;10484;48.736;9.332;2023-12-22T13:59:47;1.00;;;0.60;;
20649;SDS011;10484;48.736;9.332;2023-12-22T14:02:13;1.97;;;0.60;;
20649;SDS011;10484;48.736;9.332;2023-12-22T14:04:38;0.50;;;0.40;;
20649;SDS011;10484;48.736;9.332;2023-12-22T14:07:04;0.50;;;0.40;;
20649;SDS011;10484;48.736;9.332;2023-12-22T14:09:29;0.80;;;0.40;;
20649;SDS011;10484;48.736;9.332;2023-12-22T14:11:58;0.80;;;0.70;;
20649;SDS011;10484;48.736;9.332;2023-12-22T14:14:24;1.03;;;0.40;;
20649;SDS011;10484;48.736;9.332;2023-12-22T14:16:49;0.53;;;0.43;;
20649;SDS011;10484;48.736;9.332;2023-12-22T14:19:15;0.70;;;0.40;;
20649;SDS011;10484;48.736;9.332;2023-12-22T14:21:41;0.60;;;0.40;;
20649;SDS011;10484;48.736;9.332;2023-12-22T14:24:06;1.13;;;0.33;;
20649;SDS011;10484;48.736;9.332;2023-12-22T14:26:32;1.00;;;0.37;;
20649;SDS011;10484;48.736;9.332;2023-12-22T14:28:58;0.60;;;0.60;;
20649;SDS011;10484;48.736;9.332;2023-12-22T14:31:23;0.73;;;0.60;;
20649;SDS011;10484;48.736;9.332;2023-12-22T14:33:49;0.47;;;0.33;;
20649;SDS011;10484;48.736;9.332;2023-12-22T14:36:14;0.60;;;0.53;;
20649;SDS011;10484;48.736;9.332;2023-12-22T14:38:40;0.90;;;0.40;;
20649;SDS011;10484;48.736;9.332;2023-12-22T14:41:06;0.60;;;0.50;;
20649;SDS011;10484;48.736;9.332;2023-12-22T14:43:31;1.00;;;0.40;;
20649;SDS011;10484;48.736;9.332;2023-12-22T14:45:57;0.50;;;0.40;;
20649;SDS011;10484;48.736;9.332;2023-12-22T14:48:23;0.50;;;0.37;;
20649;SDS011;10484;48.736;9.332;2023-12-22T14:50:48;0.73;;;0.30;;
20649;SDS011;10484;48.736;9.332;2023-12-22T14:53:14;0.70;;;0.40;;
20649;SDS011;10484;48.736;9.332;2023-12-22T14:55:40;0.57;;;0.47;;
20649;SDS011;10484;48.736;9.332;2023-12-22T14:58:06;0.53;;;0.40;;